AEA989 LIME-LEIB
Flight info
| Callsign | AEA989 |
|---|---|
| Flight time | 1h 16m |
| Altitude | 35000 |
| Route | VOG DCT GEKBA DCT VAMTU DCT KOLON DCT GANGU DCT PADKO DCT VATIR N852 PIVUS Z237 SULID DCT DIMIB DCT POS |
| Aircraft | B738/M-SDE2E3FGHIRWXY/LB1 |
Departure
| Time | 2026-05-07 17:00 |
|---|---|
| Airport | Il Caravaggio International Airport (LIME) |
Arrival
| Time | 2026-05-07 18:16 |
|---|---|
| Airport | Ibiza Airport (LEIB) |
| Time | Latitude | Longitude | Altitude | Speed | Heading |
|---|---|---|---|---|---|
| 2026-05-07 16:31 | 45.66604 | 9.70339 | 787 ft | 0 kts | 194° |
| 2026-05-07 16:32 | 45.66603 | 9.70338 | 787 ft | 0 kts | 194° |
| 2026-05-07 16:48 | 45.66602 | 9.70339 | 788 ft | 0 kts | 194° |
| 2026-05-07 16:48 | 45.66607 | 9.70341 | 787 ft | 0 kts | 194° |
| 2026-05-07 16:48 | 45.66603 | 9.70338 | 787 ft | 0 kts | 194° |
| 2026-05-07 16:51 | 45.66609 | 9.70341 | 787 ft | 4 kts | 194° |
| 2026-05-07 16:51 | 45.66635 | 9.70350 | 787 ft | 4 kts | 194° |
| 2026-05-07 16:51 | 45.66658 | 9.70358 | 787 ft | 4 kts | 180° |
| 2026-05-07 16:52 | 45.66678 | 9.70347 | 787 ft | 4 kts | 117° |
| 2026-05-07 16:52 | 45.66685 | 9.70320 | 787 ft | 1 kts | 105° |
| 2026-05-07 16:52 | 45.66686 | 9.70315 | 787 ft | 0 kts | 105° |
| 2026-05-07 16:54 | 45.66686 | 9.70316 | 787 ft | 1 kts | 105° |
| 2026-05-07 16:54 | 45.66675 | 9.70375 | 787 ft | 10 kts | 105° |
| 2026-05-07 16:55 | 45.66656 | 9.70477 | 786 ft | 11 kts | 105° |
| 2026-05-07 16:55 | 45.66637 | 9.70578 | 785 ft | 10 kts | 104° |
| 2026-05-07 16:55 | 45.66619 | 9.70677 | 784 ft | 10 kts | 104° |
| 2026-05-07 16:55 | 45.66601 | 9.70772 | 784 ft | 10 kts | 105° |
| 2026-05-07 16:56 | 45.66584 | 9.70865 | 783 ft | 10 kts | 105° |
| 2026-05-07 16:56 | 45.66563 | 9.70979 | 782 ft | 16 kts | 105° |
| 2026-05-07 16:56 | 45.66487 | 9.71303 | 780 ft | 16 kts | 105° |
| 2026-05-07 16:57 | 45.66458 | 9.71456 | 779 ft | 16 kts | 105° |
| 2026-05-07 16:57 | 45.66440 | 9.71605 | 778 ft | 15 kts | 82° |
| 2026-05-07 16:57 | 45.66469 | 9.71776 | 776 ft | 20 kts | 76° |
| 2026-05-07 16:57 | 45.66454 | 9.71971 | 774 ft | 20 kts | 106° |
| 2026-05-07 16:58 | 45.66420 | 9.72154 | 773 ft | 19 kts | 104° |
| 2026-05-07 16:58 | 45.66387 | 9.72333 | 772 ft | 17 kts | 105° |
| 2026-05-07 16:58 | 45.66381 | 9.72495 | 772 ft | 16 kts | 81° |
| 2026-05-07 16:58 | 45.66439 | 9.72572 | 772 ft | 10 kts | 314° |
| 2026-05-07 16:59 | 45.66462 | 9.72431 | 772 ft | 33 kts | 284° |
| 2026-05-07 16:59 | 45.66581 | 9.71790 | 777 ft | 99 kts | 284° |
| 2026-05-07 16:59 | 45.66810 | 9.70568 | 785 ft | 153 kts | 284° |
| 2026-05-07 16:59 | 45.67119 | 9.68905 | 964 ft | 186 kts | 283° |
| 2026-05-07 17:00 | 45.67458 | 9.67097 | 1672 ft | 191 kts | 278° |
| 2026-05-07 17:00 | 45.67350 | 9.65172 | 2271 ft | 201 kts | 250° |
| 2026-05-07 17:00 | 45.66603 | 9.63447 | 2751 ft | 207 kts | 224° |
| 2026-05-07 17:00 | 45.65384 | 9.62304 | 3256 ft | 217 kts | 198° |
| 2026-05-07 17:01 | 45.63895 | 9.62033 | 3903 ft | 219 kts | 190° |
| 2026-05-07 17:01 | 45.62580 | 9.61014 | 4534 ft | 221 kts | 230° |
| 2026-05-07 17:01 | 45.61619 | 9.59289 | 5329 ft | 222 kts | 230° |
| 2026-05-07 17:01 | 45.60580 | 9.57609 | 5988 ft | 228 kts | 228° |
| 2026-05-07 17:02 | 45.59504 | 9.55950 | 6710 ft | 228 kts | 228° |
| 2026-05-07 17:02 | 45.58396 | 9.54290 | 7336 ft | 231 kts | 226° |
| 2026-05-07 17:02 | 45.57270 | 9.52655 | 8028 ft | 231 kts | 226° |
| 2026-05-07 17:02 | 45.56129 | 9.51014 | 8661 ft | 234 kts | 226° |
| 2026-05-07 17:03 | 45.54976 | 9.49345 | 9316 ft | 236 kts | 227° |
| 2026-05-07 17:03 | 45.53806 | 9.47644 | 9783 ft | 249 kts | 226° |
| 2026-05-07 17:03 | 45.52534 | 9.45798 | 9973 ft | 272 kts | 226° |
| 2026-05-07 17:03 | 45.51171 | 9.43825 | 10364 ft | 284 kts | 226° |
| 2026-05-07 17:04 | 45.49775 | 9.41809 | 11041 ft | 286 kts | 227° |
| 2026-05-07 17:04 | 45.48310 | 9.39744 | 11245 ft | 308 kts | 222° |
| 2026-05-07 17:04 | 45.46497 | 9.37916 | 11409 ft | 330 kts | 213° |
| 2026-05-07 17:04 | 45.44441 | 9.36206 | 11526 ft | 352 kts | 211° |
| 2026-05-07 17:05 | 45.42292 | 9.34500 | 11986 ft | 363 kts | 211° |
| 2026-05-07 17:05 | 45.40065 | 9.32737 | 12650 ft | 368 kts | 211° |
| 2026-05-07 17:05 | 45.37836 | 9.30951 | 13447 ft | 368 kts | 211° |
| 2026-05-07 17:05 | 45.35603 | 9.29139 | 14162 ft | 370 kts | 212° |
| 2026-05-07 17:06 | 45.33360 | 9.27303 | 14780 ft | 374 kts | 212° |
| 2026-05-07 17:06 | 45.31107 | 9.25449 | 15577 ft | 370 kts | 212° |
| 2026-05-07 17:06 | 45.28912 | 9.23640 | 16682 ft | 360 kts | 212° |
| 2026-05-07 17:06 | 45.26769 | 9.21872 | 17789 ft | 350 kts | 212° |
| 2026-05-07 17:07 | 45.24694 | 9.20160 | 18827 ft | 340 kts | 213° |
| 2026-05-07 17:07 | 45.22672 | 9.18493 | 19618 ft | 333 kts | 213° |
| 2026-05-07 17:07 | 45.20702 | 9.16868 | 19905 ft | 321 kts | 213° |
| 2026-05-07 17:07 | 45.18793 | 9.15295 | 19935 ft | 315 kts | 213° |
| 2026-05-07 17:08 | 45.16911 | 9.13744 | 19946 ft | 311 kts | 213° |
| 2026-05-07 17:08 | 45.15056 | 9.12217 | 19953 ft | 303 kts | 213° |
| 2026-05-07 17:08 | 45.13278 | 9.10756 | 19971 ft | 289 kts | 213° |
| 2026-05-07 17:08 | 45.11588 | 9.09368 | 19944 ft | 278 kts | 213° |
| 2026-05-07 17:09 | 45.09935 | 9.08010 | 19983 ft | 272 kts | 214° |
| 2026-05-07 17:09 | 45.08295 | 9.06662 | 19983 ft | 273 kts | 214° |
| 2026-05-07 17:09 | 45.06647 | 9.05307 | 19963 ft | 274 kts | 214° |
| 2026-05-07 17:09 | 45.04996 | 9.03954 | 19949 ft | 275 kts | 213° |
| 2026-05-07 17:10 | 45.03333 | 9.02592 | 19937 ft | 277 kts | 213° |
| 2026-05-07 17:10 | 45.01658 | 9.01220 | 19938 ft | 280 kts | 213° |
| 2026-05-07 17:10 | 44.99973 | 8.99841 | 19950 ft | 278 kts | 213° |
| 2026-05-07 17:10 | 44.98332 | 8.98501 | 19959 ft | 274 kts | 213° |
| 2026-05-07 17:11 | 44.96696 | 8.97127 | 20013 ft | 275 kts | 219° |
| 2026-05-07 17:11 | 44.95343 | 8.95172 | 20141 ft | 286 kts | 233° |
| 2026-05-07 17:11 | 44.94063 | 8.92912 | 20277 ft | 304 kts | 233° |
| 2026-05-07 17:11 | 44.92710 | 8.90505 | 20416 ft | 322 kts | 233° |
| 2026-05-07 17:12 | 44.91280 | 8.87964 | 20541 ft | 339 kts | 233° |
| 2026-05-07 17:12 | 44.89773 | 8.85302 | 20670 ft | 356 kts | 233° |
| 2026-05-07 17:12 | 44.88186 | 8.82514 | 20781 ft | 372 kts | 233° |
| 2026-05-07 17:12 | 44.86530 | 8.79617 | 20885 ft | 386 kts | 233° |
| 2026-05-07 17:13 | 44.85398 | 8.77643 | 20949 ft | 396 kts | 233° |
| 2026-05-07 17:13 | 44.83047 | 8.73554 | 21067 ft | 413 kts | 232° |
| 2026-05-07 17:13 | 44.81210 | 8.70369 | 21168 ft | 424 kts | 232° |
| 2026-05-07 17:13 | 44.79330 | 8.67114 | 21432 ft | 431 kts | 232° |
| 2026-05-07 17:14 | 44.77430 | 8.63828 | 21877 ft | 432 kts | 232° |
| 2026-05-07 17:14 | 44.76174 | 8.61659 | 22204 ft | 432 kts | 232° |
| 2026-05-07 17:14 | 44.74274 | 8.58381 | 22666 ft | 433 kts | 232° |
| 2026-05-07 17:14 | 44.72361 | 8.55080 | 23089 ft | 435 kts | 232° |
| 2026-05-07 17:15 | 44.70442 | 8.51773 | 23477 ft | 437 kts | 232° |
| 2026-05-07 17:15 | 44.68513 | 8.48453 | 23815 ft | 439 kts | 232° |
| 2026-05-07 17:15 | 44.66581 | 8.45131 | 24182 ft | 439 kts | 232° |
| 2026-05-07 17:15 | 44.64650 | 8.41815 | 24577 ft | 439 kts | 232° |
| 2026-05-07 17:16 | 44.62718 | 8.38502 | 24932 ft | 439 kts | 232° |
| 2026-05-07 17:16 | 44.60777 | 8.35175 | 25232 ft | 441 kts | 232° |
| 2026-05-07 17:16 | 44.58829 | 8.31841 | 25500 ft | 443 kts | 232° |
| 2026-05-07 17:16 | 44.56874 | 8.28498 | 25803 ft | 444 kts | 232° |
| 2026-05-07 17:17 | 44.54915 | 8.25151 | 26158 ft | 443 kts | 232° |
| 2026-05-07 17:17 | 44.52965 | 8.21829 | 26680 ft | 439 kts | 232° |
| 2026-05-07 17:17 | 44.51041 | 8.18552 | 27303 ft | 433 kts | 232° |
| 2026-05-07 17:17 | 44.49137 | 8.15314 | 27873 ft | 428 kts | 232° |
| 2026-05-07 17:18 | 44.47252 | 8.12110 | 28415 ft | 424 kts | 232° |
| 2026-05-07 17:18 | 44.45404 | 8.08974 | 28858 ft | 423 kts | 232° |
| 2026-05-07 17:18 | 44.43531 | 8.05797 | 29306 ft | 421 kts | 232° |
| 2026-05-07 17:18 | 44.41673 | 8.02648 | 29784 ft | 418 kts | 232° |
| 2026-05-07 17:19 | 44.39827 | 7.99524 | 30259 ft | 415 kts | 232° |
| 2026-05-07 17:19 | 44.37993 | 7.96422 | 30657 ft | 413 kts | 232° |
| 2026-05-07 17:19 | 44.36158 | 7.93323 | 30899 ft | 415 kts | 232° |
| 2026-05-07 17:19 | 44.34318 | 7.90218 | 31179 ft | 415 kts | 232° |
| 2026-05-07 17:20 | 44.32483 | 7.87126 | 31682 ft | 409 kts | 233° |
| 2026-05-07 17:20 | 44.30681 | 7.84091 | 32223 ft | 404 kts | 233° |
| 2026-05-07 17:20 | 44.28888 | 7.81075 | 32580 ft | 402 kts | 233° |
| 2026-05-07 17:20 | 44.27100 | 7.78085 | 32922 ft | 401 kts | 232° |
| 2026-05-07 17:21 | 44.25135 | 7.75294 | 33187 ft | 403 kts | 226° |
| 2026-05-07 17:21 | 44.23103 | 7.72860 | 34616 ft | 352 kts | 224° |
| 2026-05-07 17:21 | 44.21232 | 7.70711 | 34753 ft | 360 kts | 223° |
| 2026-05-07 17:21 | 44.19260 | 7.68346 | 34232 ft | 380 kts | 226° |
| 2026-05-07 17:22 | 44.17304 | 7.65892 | 34507 ft | 378 kts | 226° |
| 2026-05-07 17:22 | 44.15350 | 7.63446 | 34695 ft | 377 kts | 226° |
| 2026-05-07 17:22 | 44.13513 | 7.60851 | 34821 ft | 375 kts | 232° |
| 2026-05-07 17:22 | 44.11798 | 7.58087 | 34929 ft | 379 kts | 232° |
| 2026-05-07 17:23 | 44.08319 | 7.52480 | 35001 ft | 386 kts | 232° |
| 2026-05-07 17:23 | 44.04779 | 7.46807 | 34988 ft | 394 kts | 231° |
| 2026-05-07 17:24 | 44.01141 | 7.41005 | 34995 ft | 402 kts | 231° |
| 2026-05-07 17:24 | 43.97443 | 7.35130 | 34991 ft | 402 kts | 231° |
| 2026-05-07 17:25 | 43.93785 | 7.29327 | 34985 ft | 396 kts | 231° |
| 2026-05-07 17:25 | 43.90182 | 7.23620 | 34983 ft | 395 kts | 231° |
| 2026-05-07 17:26 | 43.86554 | 7.17889 | 34990 ft | 395 kts | 231° |
| 2026-05-07 17:26 | 43.82921 | 7.12155 | 34977 ft | 396 kts | 231° |
| 2026-05-07 17:27 | 43.79281 | 7.06419 | 34986 ft | 396 kts | 231° |
| 2026-05-07 17:27 | 43.75661 | 7.00731 | 34995 ft | 396 kts | 231° |
| 2026-05-07 17:28 | 43.72276 | 6.94737 | 34986 ft | 394 kts | 240° |
| 2026-05-07 17:28 | 43.69972 | 6.87876 | 34975 ft | 394 kts | 248° |
| 2026-05-07 17:29 | 43.67929 | 6.80851 | 34970 ft | 394 kts | 248° |
| 2026-05-07 17:29 | 43.65867 | 6.73834 | 34962 ft | 394 kts | 248° |
| 2026-05-07 17:30 | 43.63805 | 6.66866 | 34957 ft | 394 kts | 248° |
| 2026-05-07 17:30 | 43.61726 | 6.59866 | 34948 ft | 393 kts | 247° |
| 2026-05-07 17:31 | 43.59647 | 6.52887 | 34946 ft | 393 kts | 247° |
| 2026-05-07 17:31 | 43.57564 | 6.45908 | 34961 ft | 393 kts | 247° |
| 2026-05-07 17:32 | 43.55474 | 6.38930 | 34944 ft | 394 kts | 247° |
| 2026-05-07 17:32 | 43.53393 | 6.31998 | 34941 ft | 394 kts | 247° |
| 2026-05-07 17:33 | 43.51282 | 6.24983 | 34945 ft | 394 kts | 247° |
| 2026-05-07 17:33 | 43.49192 | 6.18059 | 34939 ft | 394 kts | 247° |
| 2026-05-07 17:34 | 43.48137 | 6.14557 | 34566 ft | 401 kts | 247° |
| 2026-05-07 17:34 | 43.47061 | 6.10993 | 33798 ft | 399 kts | 247° |
| 2026-05-07 17:34 | 43.46005 | 6.07516 | 33695 ft | 384 kts | 247° |
| 2026-05-07 17:34 | 43.45041 | 6.04162 | 33920 ft | 376 kts | 247° |
| 2026-05-07 17:35 | 43.42977 | 5.97401 | 33903 ft | 387 kts | 246° |
| 2026-05-07 17:35 | 43.40861 | 5.90565 | 34106 ft | 394 kts | 246° |
| 2026-05-07 17:36 | 43.39791 | 5.87088 | 34263 ft | 395 kts | 246° |
| 2026-05-07 17:36 | 43.38725 | 5.83612 | 34457 ft | 395 kts | 246° |
| 2026-05-07 17:36 | 43.37656 | 5.80123 | 34691 ft | 394 kts | 246° |
| 2026-05-07 17:36 | 43.36588 | 5.76636 | 34871 ft | 394 kts | 246° |
| 2026-05-07 17:37 | 43.34466 | 5.69719 | 34961 ft | 397 kts | 246° |
| 2026-05-07 17:37 | 43.27856 | 5.48282 | 34955 ft | 402 kts | 245° |
| 2026-05-07 17:38 | 43.23329 | 5.34942 | 34969 ft | 402 kts | 235° |
| 2026-05-07 17:38 | 43.19707 | 5.29114 | 34964 ft | 403 kts | 223° |
| 2026-05-07 17:39 | 43.03705 | 5.10515 | 34955 ft | 402 kts | 222° |
| 2026-05-07 17:39 | 42.86675 | 4.90741 | 34972 ft | 401 kts | 222° |
| 2026-05-07 17:40 | 42.69672 | 4.71154 | 34959 ft | 400 kts | 221° |
| 2026-05-07 17:40 | 42.52656 | 4.51696 | 34983 ft | 399 kts | 221° |
| 2026-05-07 17:41 | 42.35731 | 4.32482 | 34971 ft | 399 kts | 221° |
| 2026-05-07 17:41 | 42.18909 | 4.13520 | 34986 ft | 399 kts | 221° |
| 2026-05-07 17:42 | 42.11938 | 4.07694 | 34967 ft | 401 kts | 210° |
| 2026-05-07 17:42 | 41.93177 | 3.93968 | 34966 ft | 402 kts | 211° |
| 2026-05-07 17:43 | 41.77251 | 3.83189 | 34969 ft | 402 kts | 208° |
| 2026-05-07 17:43 | 41.57181 | 3.69784 | 34961 ft | 403 kts | 208° |
| 2026-05-07 17:44 | 41.37123 | 3.56458 | 34953 ft | 402 kts | 208° |
| 2026-05-07 17:44 | 41.20114 | 3.45240 | 34960 ft | 401 kts | 206° |
| 2026-05-07 17:45 | 41.13095 | 3.42643 | 34975 ft | 405 kts | 194° |
| 2026-05-07 17:45 | 40.90910 | 3.36864 | 34953 ft | 406 kts | 194° |
| 2026-05-07 17:46 | 40.68680 | 3.31048 | 34963 ft | 407 kts | 194° |
| 2026-05-07 17:46 | 40.46400 | 3.25262 | 34950 ft | 409 kts | 194° |
| 2026-05-07 17:47 | 40.29495 | 3.20899 | 34951 ft | 410 kts | 194° |
| 2026-05-07 17:47 | 40.06996 | 3.15141 | 34937 ft | 412 kts | 194° |
| 2026-05-07 17:48 | 39.92332 | 3.11222 | 34922 ft | 410 kts | 204° |
| 2026-05-07 17:48 | 39.78586 | 3.01200 | 34943 ft | 411 kts | 211° |
| 2026-05-07 17:49 | 39.65193 | 2.91480 | 34930 ft | 413 kts | 211° |
| 2026-05-07 17:49 | 39.60171 | 2.87847 | 34939 ft | 414 kts | 211° |
| 2026-05-07 17:50 | 39.55160 | 2.84224 | 34937 ft | 415 kts | 211° |
| 2026-05-07 17:50 | 39.50107 | 2.80577 | 34943 ft | 415 kts | 211° |
| 2026-05-07 17:51 | 39.45060 | 2.76933 | 34940 ft | 415 kts | 212° |
| 2026-05-07 17:51 | 39.42750 | 2.74707 | 34785 ft | 415 kts | 225° |
| 2026-05-07 17:51 | 39.40867 | 2.71897 | 34234 ft | 418 kts | 231° |
| 2026-05-07 17:52 | 39.39055 | 2.68959 | 33505 ft | 417 kts | 231° |
| 2026-05-07 17:52 | 39.37231 | 2.65982 | 32780 ft | 417 kts | 230° |
| 2026-05-07 17:52 | 39.35449 | 2.63092 | 32034 ft | 417 kts | 229° |
| 2026-05-07 17:52 | 39.33628 | 2.60163 | 31295 ft | 418 kts | 229° |
| 2026-05-07 17:53 | 39.31800 | 2.57244 | 30520 ft | 419 kts | 228° |
| 2026-05-07 17:53 | 39.29959 | 2.54321 | 29786 ft | 419 kts | 228° |
| 2026-05-07 17:53 | 39.28129 | 2.51425 | 29193 ft | 415 kts | 228° |
| 2026-05-07 17:53 | 39.26294 | 2.48528 | 28615 ft | 421 kts | 228° |
| 2026-05-07 17:54 | 39.24413 | 2.45564 | 28038 ft | 428 kts | 229° |
| 2026-05-07 17:54 | 39.22541 | 2.42614 | 27464 ft | 422 kts | 229° |
| 2026-05-07 17:54 | 39.20692 | 2.39700 | 26894 ft | 417 kts | 229° |
| 2026-05-07 17:54 | 39.18866 | 2.36825 | 26321 ft | 412 kts | 229° |
| 2026-05-07 17:55 | 39.17056 | 2.33978 | 25778 ft | 408 kts | 229° |
| 2026-05-07 17:55 | 39.15264 | 2.31162 | 25222 ft | 404 kts | 229° |
| 2026-05-07 17:55 | 39.13488 | 2.28375 | 24713 ft | 400 kts | 229° |
| 2026-05-07 17:55 | 39.11749 | 2.25647 | 24190 ft | 399 kts | 229° |
| 2026-05-07 17:56 | 39.09993 | 2.22896 | 23634 ft | 397 kts | 230° |
| 2026-05-07 17:56 | 39.08228 | 2.20135 | 23025 ft | 402 kts | 230° |
| 2026-05-07 17:56 | 39.06445 | 2.17346 | 22440 ft | 403 kts | 230° |
| 2026-05-07 17:56 | 39.04668 | 2.14568 | 21872 ft | 399 kts | 229° |
| 2026-05-07 17:57 | 39.02913 | 2.11827 | 21341 ft | 394 kts | 229° |
| 2026-05-07 17:57 | 39.01762 | 2.10031 | 20986 ft | 392 kts | 229° |
| 2026-05-07 17:57 | 38.99458 | 2.06437 | 20287 ft | 386 kts | 229° |
| 2026-05-07 17:57 | 38.97754 | 2.03782 | 19773 ft | 383 kts | 229° |
| 2026-05-07 17:58 | 38.96068 | 2.01157 | 19281 ft | 379 kts | 229° |
| 2026-05-07 17:58 | 38.94394 | 1.98554 | 18788 ft | 376 kts | 228° |
| 2026-05-07 17:58 | 38.92734 | 1.95975 | 18287 ft | 373 kts | 228° |
| 2026-05-07 17:58 | 38.91131 | 1.93362 | 17722 ft | 373 kts | 235° |
| 2026-05-07 17:59 | 38.90118 | 1.90339 | 17239 ft | 376 kts | 251° |
| 2026-05-07 17:59 | 38.89452 | 1.87093 | 16726 ft | 376 kts | 253° |
| 2026-05-07 17:59 | 38.88812 | 1.83827 | 16206 ft | 380 kts | 253° |
| 2026-05-07 17:59 | 38.88160 | 1.80513 | 15710 ft | 383 kts | 253° |
| 2026-05-07 18:00 | 38.87498 | 1.77207 | 15192 ft | 380 kts | 253° |
| 2026-05-07 18:00 | 38.86834 | 1.73937 | 14707 ft | 376 kts | 253° |
| 2026-05-07 18:00 | 38.86171 | 1.70700 | 14224 ft | 373 kts | 253° |
| 2026-05-07 18:00 | 38.85511 | 1.67496 | 13747 ft | 370 kts | 253° |
| 2026-05-07 18:01 | 38.84852 | 1.64311 | 13218 ft | 368 kts | 253° |
| 2026-05-07 18:01 | 38.84418 | 1.62219 | 12892 ft | 365 kts | 253° |
| 2026-05-07 18:01 | 38.83550 | 1.58076 | 12336 ft | 359 kts | 252° |
| 2026-05-07 18:01 | 38.82876 | 1.55017 | 12089 ft | 353 kts | 252° |
| 2026-05-07 18:02 | 38.81553 | 1.49094 | 11825 ft | 340 kts | 253° |
| 2026-05-07 18:02 | 38.81129 | 1.47186 | 11713 ft | 333 kts | 253° |
| 2026-05-07 18:02 | 38.80503 | 1.44368 | 11564 ft | 323 kts | 253° |
| 2026-05-07 18:03 | 38.79775 | 1.41678 | 11334 ft | 315 kts | 243° |
| 2026-05-07 18:03 | 38.78769 | 1.39230 | 11151 ft | 306 kts | 239° |
| 2026-05-07 18:03 | 38.77730 | 1.36883 | 10996 ft | 298 kts | 238° |
| 2026-05-07 18:03 | 38.76735 | 1.34590 | 10857 ft | 290 kts | 240° |
| 2026-05-07 18:04 | 38.75785 | 1.32343 | 10716 ft | 283 kts | 240° |
| 2026-05-07 18:04 | 38.74870 | 1.30149 | 10602 ft | 275 kts | 240° |
| 2026-05-07 18:04 | 38.73994 | 1.28040 | 10463 ft | 269 kts | 240° |
| 2026-05-07 18:04 | 38.73116 | 1.25932 | 10188 ft | 268 kts | 240° |
| 2026-05-07 18:05 | 38.72234 | 1.23819 | 9921 ft | 267 kts | 241° |
| 2026-05-07 18:05 | 38.71358 | 1.21717 | 9649 ft | 267 kts | 240° |
| 2026-05-07 18:05 | 38.70483 | 1.19620 | 9358 ft | 266 kts | 241° |
| 2026-05-07 18:05 | 38.69613 | 1.17538 | 9083 ft | 265 kts | 240° |
| 2026-05-07 18:06 | 38.68756 | 1.15488 | 8804 ft | 264 kts | 240° |
| 2026-05-07 18:06 | 38.67892 | 1.13421 | 8548 ft | 262 kts | 242° |
| 2026-05-07 18:06 | 38.67035 | 1.11373 | 8294 ft | 260 kts | 242° |
| 2026-05-07 18:06 | 38.66183 | 1.09339 | 8031 ft | 259 kts | 242° |
| 2026-05-07 18:07 | 38.65335 | 1.07316 | 7769 ft | 258 kts | 242° |
| 2026-05-07 18:07 | 38.64527 | 1.05272 | 7524 ft | 256 kts | 250° |
| 2026-05-07 18:07 | 38.64172 | 1.03049 | 7276 ft | 255 kts | 261° |
| 2026-05-07 18:07 | 38.63920 | 1.00813 | 7090 ft | 250 kts | 261° |
| 2026-05-07 18:08 | 38.63946 | 0.98634 | 6945 ft | 244 kts | 287° |
| 2026-05-07 18:08 | 38.64778 | 0.96781 | 6735 ft | 242 kts | 314° |
| 2026-05-07 18:08 | 38.66109 | 0.95496 | 6516 ft | 237 kts | 332° |
| 2026-05-07 18:08 | 38.67643 | 0.94924 | 6289 ft | 227 kts | 3° |
| 2026-05-07 18:09 | 38.69128 | 0.95417 | 6067 ft | 219 kts | 28° |
| 2026-05-07 18:09 | 38.70292 | 0.96587 | 5839 ft | 215 kts | 49° |
| 2026-05-07 18:09 | 38.71093 | 0.98211 | 5623 ft | 215 kts | 59° |
| 2026-05-07 18:09 | 38.71823 | 0.99894 | 5398 ft | 218 kts | 59° |
| 2026-05-07 18:10 | 38.72541 | 1.01617 | 5162 ft | 220 kts | 60° |
| 2026-05-07 18:10 | 38.73253 | 1.03365 | 4927 ft | 221 kts | 60° |
| 2026-05-07 18:10 | 38.73962 | 1.05103 | 4668 ft | 218 kts | 61° |
| 2026-05-07 18:10 | 38.74659 | 1.06807 | 4433 ft | 214 kts | 60° |
| 2026-05-07 18:11 | 38.75346 | 1.08482 | 4185 ft | 210 kts | 60° |
| 2026-05-07 18:11 | 38.76014 | 1.10113 | 3952 ft | 203 kts | 59° |
| 2026-05-07 18:11 | 38.76661 | 1.11691 | 3738 ft | 197 kts | 60° |
| 2026-05-07 18:11 | 38.77292 | 1.13229 | 3537 ft | 194 kts | 60° |
| 2026-05-07 18:12 | 38.77938 | 1.14738 | 3339 ft | 190 kts | 56° |
| 2026-05-07 18:12 | 38.78576 | 1.16188 | 3137 ft | 187 kts | 57° |
| 2026-05-07 18:12 | 38.79192 | 1.17649 | 2938 ft | 186 kts | 58° |
| 2026-05-07 18:12 | 38.79787 | 1.19090 | 2785 ft | 176 kts | 58° |
| 2026-05-07 18:13 | 38.80338 | 1.20436 | 2658 ft | 170 kts | 58° |
| 2026-05-07 18:13 | 38.80884 | 1.21763 | 2440 ft | 167 kts | 58° |
| 2026-05-07 18:13 | 38.81418 | 1.23064 | 2221 ft | 163 kts | 58° |
| 2026-05-07 18:13 | 38.81945 | 1.24345 | 1998 ft | 162 kts | 58° |
| 2026-05-07 18:14 | 38.82330 | 1.25279 | 1850 ft | 162 kts | 58° |
| 2026-05-07 18:14 | 38.82851 | 1.26549 | 1638 ft | 158 kts | 57° |
| 2026-05-07 18:14 | 38.83344 | 1.27749 | 1432 ft | 150 kts | 57° |
| 2026-05-07 18:14 | 38.83823 | 1.28915 | 1259 ft | 146 kts | 56° |
| 2026-05-07 18:15 | 38.84299 | 1.30068 | 1020 ft | 144 kts | 57° |
| 2026-05-07 18:15 | 38.84763 | 1.31195 | 857 ft | 144 kts | 58° |
| 2026-05-07 18:15 | 38.85230 | 1.32328 | 658 ft | 141 kts | 60° |
| 2026-05-07 18:15 | 38.85678 | 1.33422 | 451 ft | 139 kts | 58° |
| 2026-05-07 18:16 | 38.86142 | 1.34538 | 304 ft | 146 kts | 62° |
| 2026-05-07 18:16 | 38.86624 | 1.35719 | 97 ft | 151 kts | 60° |
| 2026-05-07 18:16 | 38.87099 | 1.36861 | 29 ft | 126 kts | 61° |
| 2026-05-07 18:16 | 38.87383 | 1.37552 | 27 ft | 34 kts | 62° |
| 2026-05-07 18:17 | 38.87459 | 1.37714 | 27 ft | 15 kts | 48° |
| 2026-05-07 18:17 | 38.87528 | 1.37808 | 28 ft | 14 kts | 40° |
| 2026-05-07 18:17 | 38.87605 | 1.37880 | 29 ft | 12 kts | 32° |
| 2026-05-07 18:17 | 38.87674 | 1.37921 | 29 ft | 11 kts | 351° |
| 2026-05-07 18:18 | 38.87689 | 1.37842 | 28 ft | 11 kts | 246° |
| 2026-05-07 18:18 | 38.87656 | 1.37758 | 28 ft | 10 kts | 241° |
| 2026-05-07 18:18 | 38.87622 | 1.37678 | 28 ft | 10 kts | 242° |
| 2026-05-07 18:18 | 38.87590 | 1.37599 | 28 ft | 10 kts | 243° |
| 2026-05-07 18:19 | 38.87559 | 1.37522 | 28 ft | 10 kts | 243° |
| 2026-05-07 18:19 | 38.87529 | 1.37447 | 28 ft | 9 kts | 243° |
| 2026-05-07 18:19 | 38.87498 | 1.37375 | 28 ft | 9 kts | 241° |
| 2026-05-07 18:19 | 38.87466 | 1.37300 | 28 ft | 10 kts | 241° |
| 2026-05-07 18:20 | 38.87434 | 1.37225 | 28 ft | 9 kts | 242° |
| 2026-05-07 18:20 | 38.87406 | 1.37153 | 28 ft | 7 kts | 244° |
| 2026-05-07 18:20 | 38.87387 | 1.37103 | 28 ft | 6 kts | 244° |
| 2026-05-07 18:20 | 38.87369 | 1.37056 | 28 ft | 6 kts | 241° |
| 2026-05-07 18:21 | 38.87358 | 1.37009 | 28 ft | 6 kts | 295° |
| 2026-05-07 18:21 | 38.87392 | 1.36983 | 27 ft | 6 kts | 333° |
| 2026-05-07 18:21 | 38.87421 | 1.36964 | 27 ft | 4 kts | 332° |
| 2026-05-07 18:21 | 38.87438 | 1.36953 | 27 ft | 1 kts | 334° |
| 2026-05-07 18:22 | 38.87439 | 1.36953 | 27 ft | 0 kts | 334° |